createdAt,value
2022-07-27T00:00:48.822Z,5.95
2022-07-27T00:03:50.156Z,6.25
2022-07-27T00:16:41.011Z,7.62
2022-07-27T00:19:26.328Z,6.97
2022-07-27T00:22:25.550Z,6.03
2022-07-27T00:25:07.983Z,6.32
2022-07-27T00:28:00.837Z,6.95
2022-07-27T00:30:43.548Z,6.72
2022-07-27T00:33:44.911Z,6.47
2022-07-27T00:36:28.180Z,6.65
2022-07-27T00:39:23.289Z,7.80
2022-07-27T00:42:07.898Z,7.35
2022-07-27T00:51:22.237Z,8.30
2022-07-27T00:54:19.883Z,8.07
2022-07-27T00:57:03.091Z,7.78
2022-07-27T00:59:53.894Z,7.27
2022-07-27T01:02:36.421Z,6.90
2022-07-27T01:05:16.704Z,7.40
2022-07-27T01:07:58.990Z,7.65
2022-07-27T01:10:53.352Z,7.37
2022-07-27T01:13:36.121Z,6.25
2022-07-27T01:16:19.259Z,7.07
2022-07-27T01:28:49.822Z,6.12
2022-07-27T01:38:07.797Z,6.07
2022-07-27T01:41:13.094Z,5.93
2022-07-27T01:43:56.962Z,6.25
2022-07-27T01:46:55.754Z,7.12
2022-07-27T01:49:37.212Z,7.55
2022-07-27T01:52:30.951Z,6.10
2022-07-27T01:55:14.095Z,8.85
2022-07-27T01:58:00.873Z,6.90
2022-07-27T02:00:58.378Z,7.85
2022-07-27T02:03:39.977Z,9.43
2022-07-27T02:06:35.342Z,7.87
2022-07-27T02:09:17.887Z,7.72
2022-07-27T02:12:35.673Z,8.30
2022-07-27T02:15:21.769Z,9.10
2022-07-27T02:37:21.689Z,9.40
2022-07-27T02:40:04.474Z,8.82
2022-07-27T02:42:47.505Z,7.25
2022-07-27T02:45:29.703Z,8.45
2022-07-27T02:58:12.826Z,8.50
2022-07-27T03:00:58.771Z,9.23
2022-07-27T03:03:44.017Z,9.57
2022-07-27T03:12:54.678Z,16.42
2022-07-27T03:15:53.517Z,10.20
2022-07-27T03:18:54.850Z,10.32
2022-07-27T03:34:27.679Z,7.97
2022-07-27T03:37:11.976Z,14.52
2022-07-27T03:58:36.649Z,8.55
2022-07-27T04:01:18.932Z,7.97
2022-07-27T04:07:28.983Z,9.25
2022-07-27T04:10:12.238Z,7.20
2022-07-27T04:22:43.038Z,10.63
2022-07-27T04:25:35.746Z,11.60
2022-07-27T04:28:21.667Z,13.07
2022-07-27T04:31:03.816Z,14.60
2022-07-27T04:33:46.017Z,8.82
2022-07-27T04:36:33.182Z,7.72
2022-07-27T04:39:35.712Z,8.52
2022-07-27T04:42:18.437Z,8.30
2022-07-27T04:45:14.754Z,7.70
2022-07-27T04:48:08.599Z,8.55
2022-07-27T04:50:50.625Z,9.85
2022-07-27T04:53:53.777Z,8.18
2022-07-27T04:56:36.354Z,7.30
2022-07-27T04:59:42.946Z,7.20
2022-07-27T05:02:41.920Z,8.70
2022-07-27T05:11:38.651Z,9.40
2022-07-27T05:17:35.439Z,7.75
2022-07-27T05:21:52.118Z,7.28
2022-07-27T05:28:54.601Z,7.05
2022-07-27T05:31:32.201Z,8.77
2022-07-27T05:34:20.943Z,9.30
2022-07-27T05:36:52.101Z,8.93
2022-07-27T05:42:12.348Z,9.50
2022-07-27T05:44:44.952Z,9.30
2022-07-27T05:47:18.718Z,8.25
2022-07-27T05:49:52.106Z,6.87
2022-07-27T05:52:26.931Z,8.80
2022-07-27T05:55:27.933Z,8.88
2022-07-27T05:58:24.626Z,7.20
2022-07-27T06:01:20.285Z,7.32
2022-07-27T06:04:04.027Z,7.43
2022-07-27T06:10:59.111Z,8.20
2022-07-27T06:20:43.942Z,5.65
2022-07-27T06:23:28.784Z,7.60
2022-07-27T06:26:19.591Z,6.15
2022-07-27T06:28:48.050Z,6.43
2022-07-27T06:31:16.460Z,7.12
2022-07-27T06:33:48.297Z,7.80
2022-07-27T06:36:23.936Z,7.78
2022-07-27T06:38:52.731Z,12.43
2022-07-27T06:41:22.654Z,7.22
2022-07-27T06:46:43.965Z,5.72
2022-07-27T06:49:12.326Z,6.87
2022-07-27T06:51:59.092Z,5.82
2022-07-27T07:05:02.703Z,6.12
2022-07-27T07:07:34.149Z,7.30
2022-07-27T07:10:04.857Z,5.97
2022-07-27T07:12:34.568Z,10.18
2022-07-27T07:15:06.698Z,5.35
2022-07-27T07:17:37.438Z,4.68
2022-07-27T07:20:07.128Z,4.65
2022-07-27T07:22:35.458Z,6.95
2022-07-27T07:25:06.960Z,7.15
2022-07-27T07:27:46.108Z,9.38
2022-07-27T07:30:15.891Z,7.90
2022-07-27T07:32:45.933Z,5.37
2022-07-27T07:35:14.005Z,5.37
2022-07-27T07:37:43.366Z,7.87
2022-07-27T07:40:41.267Z,4.90
2022-07-27T07:43:02.803Z,8.30
2022-07-27T07:45:33.083Z,6.10
2022-07-27T07:48:02.087Z,5.50
2022-07-27T07:50:29.981Z,4.32
2022-07-27T07:52:59.896Z,6.22
2022-07-27T07:55:30.315Z,7.80
2022-07-27T07:58:00.159Z,5.07
2022-07-27T08:00:32.560Z,6.43
2022-07-27T08:03:02.381Z,5.78
2022-07-27T08:05:33.055Z,7.72
2022-07-27T08:08:07.223Z,5.68
2022-07-27T08:10:40.207Z,5.12
2022-07-27T08:13:09.978Z,6.87
2022-07-27T08:15:38.719Z,5.62
2022-07-27T08:18:07.723Z,5.10
2022-07-27T08:20:41.697Z,5.15
2022-07-27T08:23:13.295Z,5.68
2022-07-27T08:25:42.901Z,9.88
2022-07-27T08:28:11.628Z,6.60
2022-07-27T08:30:43.207Z,6.60
2022-07-27T08:33:40.984Z,12.80
2022-07-27T08:36:10.339Z,8.23
2022-07-27T08:38:38.649Z,6.07
2022-07-27T08:41:09.104Z,5.95
2022-07-27T08:43:39.988Z,7.50
2022-07-27T08:46:10.602Z,8.05
2022-07-27T08:51:08.037Z,8.20
2022-07-27T08:53:53.515Z,8.60
2022-07-27T08:56:22.986Z,7.82
2022-07-27T08:58:52.280Z,6.22
2022-07-27T09:01:25.417Z,6.87
2022-07-27T09:03:56.491Z,7.57
2022-07-27T09:06:53.129Z,8.32
2022-07-27T09:09:23.582Z,7.07
2022-07-27T09:12:11.576Z,7.70
2022-07-27T09:14:42.063Z,10.32
2022-07-27T09:20:17.752Z,9.68
2022-07-27T09:22:51.100Z,10.80
2022-07-27T09:28:30.529Z,9.35
2022-07-27T09:31:13.620Z,8.80
2022-07-27T09:33:54.361Z,10.13
2022-07-27T09:36:26.430Z,10.15
2022-07-27T09:39:07.174Z,8.10
2022-07-27T09:41:46.244Z,7.82
2022-07-27T09:44:34.868Z,9.23
2022-07-27T09:47:28.349Z,8.23
2022-07-27T09:50:18.952Z,9.93
2022-07-27T09:52:50.216Z,8.25
2022-07-27T09:55:21.920Z,8.30
2022-07-27T09:57:56.526Z,7.55
2022-07-27T10:00:27.512Z,6.72
2022-07-27T10:02:57.555Z,6.35
2022-07-27T10:05:27.767Z,12.10
2022-07-27T10:08:00.457Z,11.45
2022-07-27T10:10:29.530Z,13.00
2022-07-27T10:12:58.980Z,14.50
2022-07-27T10:15:30.287Z,10.05
2022-07-27T10:18:09.454Z,10.48
2022-07-27T10:20:38.776Z,16.87
2022-07-27T10:23:07.421Z,9.75
2022-07-27T10:25:38.033Z,13.18
2022-07-27T10:28:20.390Z,8.25
2022-07-27T10:30:53.880Z,10.10
2022-07-27T10:33:43.228Z,9.10
2022-07-27T10:36:44.031Z,9.57
2022-07-27T10:39:12.536Z,7.90
2022-07-27T10:41:42.239Z,7.90
2022-07-27T10:44:21.512Z,7.50
2022-07-27T10:46:56.644Z,7.57
2022-07-27T10:49:28.401Z,7.28
2022-07-27T10:51:58.473Z,13.32
2022-07-27T10:54:40.363Z,8.13
2022-07-27T10:57:09.608Z,8.38
2022-07-27T11:00:07.543Z,6.82
2022-07-27T11:02:41.832Z,8.60
2022-07-27T11:05:37.858Z,6.50
2022-07-27T11:10:49.587Z,8.77
2022-07-27T11:13:19.985Z,7.50
2022-07-27T11:15:56.010Z,6.47
2022-07-27T11:18:32.995Z,6.28
2022-07-27T11:21:21.899Z,6.60
2022-07-27T11:23:55.687Z,9.95
2022-07-27T11:26:26.347Z,6.93
2022-07-27T11:28:55.957Z,6.70
2022-07-27T11:31:52.845Z,7.30
2022-07-27T11:34:18.019Z,8.95
2022-07-27T11:36:51.832Z,23.00
2022-07-27T11:39:58.817Z,7.72
2022-07-27T11:42:21.669Z,10.60
2022-07-27T11:44:55.117Z,9.07
2022-07-27T11:47:24.906Z,7.75
2022-07-27T11:55:54.458Z,7.72
2022-07-27T11:58:26.372Z,8.73
2022-07-27T12:00:55.366Z,7.82
2022-07-27T12:03:46.684Z,7.18
2022-07-27T12:06:15.194Z,7.78
2022-07-27T12:08:45.155Z,8.50
2022-07-27T12:11:16.862Z,9.38
2022-07-27T12:13:45.982Z,6.75
2022-07-27T12:16:19.021Z,14.82
2022-07-27T12:18:47.586Z,7.22
2022-07-27T12:21:20.659Z,6.40
2022-07-27T12:23:52.775Z,7.90
2022-07-27T12:26:25.596Z,7.75
2022-07-27T12:29:10.307Z,8.98
2022-07-27T12:31:50.853Z,6.00
2022-07-27T12:34:19.545Z,9.15
2022-07-27T12:36:48.392Z,9.90
2022-07-27T12:39:35.231Z,8.18
2022-07-27T12:42:06.983Z,8.65
2022-07-27T12:44:37.199Z,9.05
2022-07-27T12:47:27.941Z,6.65
2022-07-27T12:50:00.578Z,6.85
2022-07-27T12:52:28.548Z,7.87
2022-07-27T12:54:58.492Z,6.23
2022-07-27T12:57:46.615Z,5.90
2022-07-27T13:00:18.159Z,6.87
2022-07-27T13:02:46.633Z,5.50
2022-07-27T13:05:16.695Z,7.68
2022-07-27T13:07:48.010Z,7.55
2022-07-27T13:10:21.554Z,7.15
2022-07-27T13:12:51.216Z,5.93
2022-07-27T13:15:19.982Z,6.30
2022-07-27T13:17:50.463Z,6.55
2022-07-27T13:20:19.161Z,7.75
2022-07-27T13:22:50.305Z,7.80
2022-07-27T13:25:22.045Z,5.80
2022-07-27T13:27:53.279Z,9.20
2022-07-27T13:30:25.143Z,7.55
2022-07-27T13:32:54.568Z,5.78
2022-07-27T13:35:23.313Z,6.87
2022-07-27T13:37:52.318Z,5.80
2022-07-27T13:40:22.884Z,7.25
2022-07-27T13:42:56.837Z,8.23
2022-07-27T13:45:24.895Z,8.40
2022-07-27T13:47:54.881Z,7.70
2022-07-27T13:50:24.307Z,6.18
2022-07-27T13:52:56.500Z,5.80
2022-07-27T13:55:28.285Z,5.50
2022-07-27T13:58:02.678Z,5.65
2022-07-27T14:00:30.618Z,7.78
2022-07-27T14:02:59.245Z,6.15
2022-07-27T14:05:30.504Z,5.25
2022-07-27T14:08:00.180Z,5.82
2022-07-27T14:10:40.133Z,4.25
2022-07-27T14:13:14.161Z,5.85
2022-07-27T14:15:50.776Z,5.25
2022-07-27T14:18:28.234Z,5.40
2022-07-27T14:20:58.406Z,4.43
2022-07-27T14:23:27.606Z,5.45
2022-07-27T14:25:56.302Z,4.00
2022-07-27T14:28:25.517Z,4.57
2022-07-27T14:30:55.377Z,5.93
2022-07-27T14:33:29.909Z,4.05
2022-07-27T14:36:07.214Z,4.20
2022-07-27T14:38:37.072Z,7.22
2022-07-27T14:41:06.135Z,5.40
2022-07-27T14:43:34.744Z,3.60
2022-07-27T14:46:02.759Z,4.20
2022-07-27T14:49:03.248Z,5.20
2022-07-27T14:51:24.832Z,4.43
2022-07-27T14:54:05.178Z,4.25
2022-07-27T14:56:36.702Z,4.40
2022-07-27T14:59:05.505Z,4.27
2022-07-27T15:01:33.682Z,5.32
2022-07-27T15:04:01.971Z,4.35
2022-07-27T15:06:38.753Z,8.43
2022-07-27T15:09:07.902Z,4.15
2022-07-27T15:14:06.983Z,4.45
2022-07-27T15:16:35.346Z,4.53
2022-07-27T15:19:04.643Z,5.30
2022-07-27T15:21:33.102Z,4.70
2022-07-27T15:24:01.730Z,4.60
2022-07-27T15:26:30.140Z,4.28
2022-07-27T15:28:57.851Z,6.28
2022-07-27T15:31:26.443Z,4.68
2022-07-27T15:33:54.938Z,3.92
2022-07-27T15:36:32.442Z,3.80
2022-07-27T15:39:05.464Z,3.12
2022-07-27T15:41:34.730Z,5.10
2022-07-27T15:44:03.951Z,7.93
2022-07-27T15:46:32.734Z,3.62
2022-07-27T15:49:01.752Z,4.28
2022-07-27T15:51:30.373Z,4.07
2022-07-27T15:53:58.691Z,6.22
2022-07-27T15:56:27.188Z,5.57
2022-07-27T15:58:55.679Z,4.43
2022-07-27T16:01:23.956Z,5.55
2022-07-27T16:04:05.704Z,4.30
2022-07-27T16:06:39.158Z,5.22
2022-07-27T16:09:12.128Z,4.65
2022-07-27T16:11:41.047Z,4.78
2022-07-27T16:14:09.998Z,5.55
2022-07-27T16:16:37.669Z,5.05
2022-07-27T16:19:12.653Z,4.60
2022-07-27T16:21:54.224Z,4.18
2022-07-27T16:24:26.005Z,3.55
2022-07-27T16:26:54.814Z,3.78
2022-07-27T16:29:24.117Z,4.00
2022-07-27T16:31:58.059Z,3.50
2022-07-27T16:34:31.605Z,4.82
2022-07-27T16:37:01.036Z,3.83
2022-07-27T16:39:30.486Z,4.75
2022-07-27T16:41:59.024Z,5.20
2022-07-27T16:44:26.743Z,13.77
2022-07-27T16:46:56.094Z,5.60
2022-07-27T16:49:33.776Z,4.03
2022-07-27T16:52:06.178Z,4.22
2022-07-27T16:54:39.241Z,3.25
2022-07-27T16:57:10.700Z,4.75
2022-07-27T16:59:39.364Z,4.95
2022-07-27T17:02:07.518Z,6.10
2022-07-27T17:04:36.228Z,4.85
2022-07-27T17:07:04.405Z,7.57
2022-07-27T17:09:33.919Z,4.80
2022-07-27T17:12:02.920Z,4.82
2022-07-27T17:14:31.132Z,5.55
2022-07-27T17:16:59.963Z,5.30
2022-07-27T17:19:28.367Z,5.85
2022-07-27T17:21:57.145Z,7.40
2022-07-27T17:24:24.734Z,6.85
2022-07-27T17:26:52.805Z,5.87
2022-07-27T17:29:20.712Z,4.68
2022-07-27T17:31:48.850Z,4.50
2022-07-27T17:34:17.343Z,9.95
2022-07-27T17:36:46.721Z,5.35
2022-07-27T17:39:17.198Z,5.47
2022-07-27T17:41:45.696Z,3.58
2022-07-27T17:44:13.987Z,9.93
2022-07-27T17:46:42.338Z,7.18
2022-07-27T17:49:11.034Z,5.43
2022-07-27T17:51:39.384Z,6.65
2022-07-27T17:54:07.991Z,4.37
2022-07-27T17:56:36.997Z,6.43
2022-07-27T17:59:34.452Z,5.45
2022-07-27T18:01:56.796Z,3.50
2022-07-27T18:04:27.054Z,6.10
2022-07-27T18:06:54.744Z,5.07
2022-07-27T18:09:23.316Z,6.50
2022-07-27T18:11:52.941Z,5.07
2022-07-27T18:14:20.682Z,3.80
2022-07-27T18:16:51.500Z,5.37
2022-07-27T18:21:47.439Z,6.12
2022-07-27T18:24:19.585Z,8.30
2022-07-27T18:26:49.479Z,5.72
2022-07-27T18:29:20.281Z,3.83
2022-07-27T18:31:48.737Z,4.30
2022-07-27T18:34:17.515Z,5.35
2022-07-27T18:36:47.250Z,7.12
2022-07-27T18:39:16.413Z,5.25
2022-07-27T18:41:44.902Z,4.90
2022-07-27T18:44:13.128Z,3.85
2022-07-27T18:46:42.193Z,6.37
2022-07-27T18:49:14.044Z,7.05
2022-07-27T18:51:42.757Z,4.30
2022-07-27T18:54:11.283Z,3.42
2022-07-27T18:56:40.811Z,5.30
2022-07-27T18:59:09.872Z,4.47
2022-07-27T19:01:39.035Z,10.05
2022-07-27T19:04:08.157Z,5.65
2022-07-27T19:06:36.110Z,4.65
2022-07-27T19:09:05.051Z,5.40
2022-07-27T19:11:34.091Z,3.92
2022-07-27T19:14:02.221Z,4.05
2022-07-27T19:16:29.941Z,3.30
2022-07-27T19:19:00.187Z,5.03
2022-07-27T19:21:28.393Z,4.10
2022-07-27T19:23:56.630Z,5.28
2022-07-27T19:26:25.008Z,4.90
2022-07-27T19:28:52.760Z,6.37
2022-07-27T19:31:22.923Z,4.57
2022-07-27T19:33:53.047Z,4.22
2022-07-27T19:36:23.213Z,6.10
2022-07-27T19:38:52.616Z,4.40
2022-07-27T19:41:21.341Z,6.22
2022-07-27T19:43:49.935Z,4.50
2022-07-27T19:46:18.471Z,9.13
2022-07-27T19:48:46.366Z,7.32
2022-07-27T19:51:15.406Z,7.25
2022-07-27T19:53:44.814Z,9.48
2022-07-27T19:56:13.590Z,7.00
2022-07-27T19:58:42.092Z,7.10
2022-07-27T20:01:11.683Z,4.90
2022-07-27T20:03:52.161Z,5.78
2022-07-27T20:06:23.855Z,7.40
2022-07-27T20:08:56.170Z,5.75
2022-07-27T20:11:24.923Z,7.50
2022-07-27T20:13:54.261Z,6.20
2022-07-27T20:16:23.666Z,5.75
2022-07-27T20:18:53.937Z,4.78
2022-07-27T20:21:25.187Z,5.62
2022-07-27T20:23:58.387Z,4.62
2022-07-27T20:26:29.183Z,6.87
2022-07-27T20:29:00.351Z,4.97
2022-07-27T20:31:30.157Z,4.68
2022-07-27T20:33:58.787Z,6.75
2022-07-27T20:36:26.932Z,6.97
2022-07-27T20:38:59.198Z,4.37
2022-07-27T20:41:29.012Z,5.80
2022-07-27T20:43:58.674Z,4.97
2022-07-27T20:46:26.757Z,6.45
2022-07-27T20:48:54.468Z,4.20
2022-07-27T20:51:22.890Z,4.43
2022-07-27T20:53:50.896Z,9.52
2022-07-27T20:56:19.317Z,5.60
2022-07-27T20:58:48.530Z,5.47
2022-07-27T21:01:18.072Z,4.30
2022-07-27T21:03:45.897Z,5.22
2022-07-27T21:06:15.489Z,6.45
2022-07-27T21:08:46.596Z,4.45
2022-07-27T21:11:16.409Z,3.80
2022-07-27T21:13:44.787Z,4.37
2022-07-27T21:16:12.706Z,5.72
2022-07-27T21:18:41.688Z,3.50
2022-07-27T21:21:09.285Z,4.22
2022-07-27T21:23:56.612Z,4.72
2022-07-27T21:26:24.864Z,3.95
2022-07-27T21:28:53.005Z,3.72
2022-07-27T21:31:21.057Z,4.28
2022-07-27T21:33:49.932Z,7.00
2022-07-27T21:36:18.301Z,3.95
2022-07-27T21:38:46.606Z,3.67
2022-07-27T21:41:16.151Z,4.72
2022-07-27T21:43:44.858Z,3.22
2022-07-27T21:46:13.434Z,3.05
2022-07-27T21:48:43.120Z,3.83
2022-07-27T21:51:11.100Z,2.85
2022-07-27T21:53:39.833Z,3.92
2022-07-27T21:56:08.851Z,3.85
2022-07-27T21:58:36.948Z,2.65
2022-07-27T22:01:05.347Z,2.92
2022-07-27T22:03:37.287Z,2.42
2022-07-27T22:06:07.336Z,2.47
2022-07-27T22:08:36.886Z,3.45
2022-07-27T22:11:07.696Z,2.45
2022-07-27T22:13:40.456Z,2.87
2022-07-27T22:16:12.872Z,3.42
2022-07-27T22:18:43.354Z,3.37
2022-07-27T22:21:13.149Z,2.40
2022-07-27T22:26:13.162Z,3.60
2022-07-27T22:28:42.591Z,3.05
2022-07-27T22:31:21.353Z,2.72
2022-07-27T22:33:54.439Z,3.00
2022-07-27T22:36:25.441Z,5.43
2022-07-27T22:38:57.199Z,3.80
2022-07-27T22:41:29.242Z,3.00
2022-07-27T22:44:00.531Z,2.75
2022-07-27T22:46:30.657Z,2.83
2022-07-27T22:49:00.500Z,2.17
2022-07-27T22:51:49.470Z,3.08
2022-07-27T22:54:26.961Z,2.78
2022-07-27T22:56:58.087Z,2.50
2022-07-27T22:59:31.438Z,3.45
2022-07-27T23:02:02.384Z,2.58
2022-07-27T23:04:32.048Z,3.85
2022-07-27T23:07:03.068Z,3.22
2022-07-27T23:09:33.523Z,2.20
2022-07-27T23:12:05.289Z,2.90
2022-07-27T23:17:06.944Z,3.10
2022-07-27T23:19:36.803Z,3.83
2022-07-27T23:22:06.718Z,2.92
2022-07-27T23:24:41.100Z,3.10
2022-07-27T23:27:11.427Z,3.67
2022-07-27T23:29:40.382Z,2.60
2022-07-27T23:32:13.452Z,3.33
2022-07-27T23:34:44.406Z,5.35
2022-07-27T23:37:15.154Z,2.70
2022-07-27T23:39:47.685Z,3.58
2022-07-27T23:42:18.545Z,4.43
2022-07-27T23:44:48.354Z,3.25
2022-07-27T23:47:23.011Z,3.42
2022-07-27T23:49:51.089Z,2.92
2022-07-27T23:52:19.496Z,3.22
2022-07-27T23:54:48.789Z,3.65
2022-07-27T23:57:17.358Z,3.20
2022-07-27T23:59:45.178Z,3.72
